sensor_id;sensor_type;location;lat;lon;timestamp;temperature;humidity
3548;DHT22;1788;49.400;11.092;2023-11-18T00:00:34;8.20;61.80
3548;DHT22;1788;49.400;11.092;2023-11-18T00:03:00;8.20;61.80
3548;DHT22;1788;49.400;11.092;2023-11-18T00:05:28;8.20;62.00
3548;DHT22;1788;49.400;11.092;2023-11-18T00:07:54;8.20;61.90
3548;DHT22;1788;49.400;11.092;2023-11-18T00:10:21;8.20;62.00
3548;DHT22;1788;49.400;11.092;2023-11-18T00:12:47;8.20;62.00
3548;DHT22;1788;49.400;11.092;2023-11-18T00:15:14;8.20;62.00
3548;DHT22;1788;49.400;11.092;2023-11-18T00:17:41;8.20;62.00
3548;DHT22;1788;49.400;11.092;2023-11-18T00:20:07;8.20;62.00
3548;DHT22;1788;49.400;11.092;2023-11-18T00:22:34;8.20;62.00
3548;DHT22;1788;49.400;11.092;2023-11-18T00:25:01;8.20;62.00
3548;DHT22;1788;49.400;11.092;2023-11-18T00:27:27;8.20;62.00
3548;DHT22;1788;49.400;11.092;2023-11-18T00:29:54;8.20;62.00
3548;DHT22;1788;49.400;11.092;2023-11-18T00:32:20;8.20;62.10
3548;DHT22;1788;49.400;11.092;2023-11-18T00:34:47;8.20;62.10
3548;DHT22;1788;49.400;11.092;2023-11-18T00:37:13;8.20;62.10
3548;DHT22;1788;49.400;11.092;2023-11-18T00:39:42;8.20;62.20
3548;DHT22;1788;49.400;11.092;2023-11-18T00:42:08;8.20;62.10
3548;DHT22;1788;49.400;11.092;2023-11-18T00:44:35;8.20;62.10
3548;DHT22;1788;49.400;11.092;2023-11-18T00:47:01;8.20;62.20
3548;DHT22;1788;49.400;11.092;2023-11-18T00:49:28;8.20;62.20
3548;DHT22;1788;49.400;11.092;2023-11-18T00:51:54;8.20;62.30
3548;DHT22;1788;49.400;11.092;2023-11-18T00:54:21;8.20;62.30
3548;DHT22;1788;49.400;11.092;2023-11-18T00:56:48;8.20;62.30
3548;DHT22;1788;49.400;11.092;2023-11-18T00:59:16;8.20;62.30
3548;DHT22;1788;49.400;11.092;2023-11-18T01:01:43;8.20;63.20
3548;DHT22;1788;49.400;11.092;2023-11-18T01:04:10;8.20;62.40
3548;DHT22;1788;49.400;11.092;2023-11-18T01:06:36;8.20;62.40
3548;DHT22;1788;49.400;11.092;2023-11-18T01:09:03;8.20;62.40
3548;DHT22;1788;49.400;11.092;2023-11-18T01:11:29;8.20;62.40
3548;DHT22;1788;49.400;11.092;2023-11-18T01:13:56;8.20;62.40
3548;DHT22;1788;49.400;11.092;2023-11-18T01:16:23;8.20;62.40
3548;DHT22;1788;49.400;11.092;2023-11-18T01:18:49;8.20;62.50
3548;DHT22;1788;49.400;11.092;2023-11-18T01:21:17;8.20;62.60
3548;DHT22;1788;49.400;11.092;2023-11-18T01:23:43;8.20;62.60
3548;DHT22;1788;49.400;11.092;2023-11-18T01:26:10;8.10;62.60
3548;DHT22;1788;49.400;11.092;2023-11-18T01:28:36;8.10;62.60
3548;DHT22;1788;49.400;11.092;2023-11-18T01:31:03;8.10;62.60
3548;DHT22;1788;49.400;11.092;2023-11-18T01:33:30;8.10;62.60
3548;DHT22;1788;49.400;11.092;2023-11-18T01:35:57;8.10;62.60
3548;DHT22;1788;49.400;11.092;2023-11-18T01:38:24;8.10;62.60
3548;DHT22;1788;49.400;11.092;2023-11-18T01:40:50;8.10;62.60
3548;DHT22;1788;49.400;11.092;2023-11-18T01:43:17;8.10;62.50
3548;DHT22;1788;49.400;11.092;2023-11-18T01:45:44;8.10;62.50
3548;DHT22;1788;49.400;11.092;2023-11-18T01:48:10;8.10;62.50
3548;DHT22;1788;49.400;11.092;2023-11-18T01:50:37;8.00;62.50
3548;DHT22;1788;49.400;11.092;2023-11-18T01:53:04;8.00;62.50
3548;DHT22;1788;49.400;11.092;2023-11-18T01:55:30;8.00;62.40
3548;DHT22;1788;49.400;11.092;2023-11-18T01:57:57;7.90;62.30
3548;DHT22;1788;49.400;11.092;2023-11-18T02:00:24;7.90;62.30
3548;DHT22;1788;49.400;11.092;2023-11-18T02:02:51;7.90;62.30
3548;DHT22;1788;49.400;11.092;2023-11-18T02:05:18;7.90;62.30
3548;DHT22;1788;49.400;11.092;2023-11-18T02:07:45;7.80;62.20
3548;DHT22;1788;49.400;11.092;2023-11-18T02:10:11;7.80;62.30
3548;DHT22;1788;49.400;11.092;2023-11-18T02:15:06;7.70;62.20
3548;DHT22;1788;49.400;11.092;2023-11-18T02:17:32;7.70;62.20
3548;DHT22;1788;49.400;11.092;2023-11-18T02:19:59;7.60;62.20
3548;DHT22;1788;49.400;11.092;2023-11-18T02:22:25;7.60;62.20
3548;DHT22;1788;49.400;11.092;2023-11-18T02:24:52;7.60;62.30
3548;DHT22;1788;49.400;11.092;2023-11-18T02:27:18;7.50;62.20
3548;DHT22;1788;49.400;11.092;2023-11-18T02:29:45;7.50;62.30
3548;DHT22;1788;49.400;11.092;2023-11-18T02:34:40;7.40;62.40
3548;DHT22;1788;49.400;11.092;2023-11-18T02:37:06;7.30;62.30
3548;DHT22;1788;49.400;11.092;2023-11-18T02:42:00;7.30;62.30
3548;DHT22;1788;49.400;11.092;2023-11-18T02:44:26;7.20;62.20
3548;DHT22;1788;49.400;11.092;2023-11-18T02:46:53;7.20;62.20
3548;DHT22;1788;49.400;11.092;2023-11-18T02:49:20;7.20;62.30
3548;DHT22;1788;49.400;11.092;2023-11-18T02:51:47;7.10;62.20
3548;DHT22;1788;49.400;11.092;2023-11-18T02:54:14;7.10;62.20
3548;DHT22;1788;49.400;11.092;2023-11-18T02:56:40;7.00;62.20
3548;DHT22;1788;49.400;11.092;2023-11-18T02:59:07;7.00;62.20
3548;DHT22;1788;49.400;11.092;2023-11-18T03:01:34;6.90;62.20
3548;DHT22;1788;49.400;11.092;2023-11-18T03:04:00;6.90;62.20
3548;DHT22;1788;49.400;11.092;2023-11-18T03:06:27;6.90;62.30
3548;DHT22;1788;49.400;11.092;2023-11-18T03:08:53;6.80;62.20
3548;DHT22;1788;49.400;11.092;2023-11-18T03:11:20;6.80;62.30
3548;DHT22;1788;49.400;11.092;2023-11-18T03:13:47;6.80;62.40
3548;DHT22;1788;49.400;11.092;2023-11-18T03:16:14;6.80;62.40
3548;DHT22;1788;49.400;11.092;2023-11-18T03:18:41;6.80;62.40
3548;DHT22;1788;49.400;11.092;2023-11-18T03:23:34;6.70;63.20
3548;DHT22;1788;49.400;11.092;2023-11-18T03:26:00;6.70;62.40
3548;DHT22;1788;49.400;11.092;2023-11-18T03:28:27;6.70;62.40
3548;DHT22;1788;49.400;11.092;2023-11-18T03:30:54;6.70;62.50
3548;DHT22;1788;49.400;11.092;2023-11-18T03:33:20;6.70;62.50
3548;DHT22;1788;49.400;11.092;2023-11-18T03:35:48;6.70;62.60
3548;DHT22;1788;49.400;11.092;2023-11-18T03:38:15;6.70;62.60
3548;DHT22;1788;49.400;11.092;2023-11-18T03:40:42;6.70;62.60
3548;DHT22;1788;49.400;11.092;2023-11-18T03:43:09;6.60;62.20
3548;DHT22;1788;49.400;11.092;2023-11-18T03:45:36;6.60;62.70
3548;DHT22;1788;49.400;11.092;2023-11-18T03:48:02;6.60;62.70
3548;DHT22;1788;49.400;11.092;2023-11-18T03:50:29;6.60;62.70
3548;DHT22;1788;49.400;11.092;2023-11-18T03:52:55;6.60;62.70
3548;DHT22;1788;49.400;11.092;2023-11-18T03:55:23;6.60;62.80
3548;DHT22;1788;49.400;11.092;2023-11-18T03:57:49;6.60;62.80
3548;DHT22;1788;49.400;11.092;2023-11-18T04:00:16;6.60;62.80
3548;DHT22;1788;49.400;11.092;2023-11-18T04:02:43;6.60;62.80
3548;DHT22;1788;49.400;11.092;2023-11-18T04:05:09;6.60;62.80
3548;DHT22;1788;49.400;11.092;2023-11-18T04:07:36;6.60;62.90
3548;DHT22;1788;49.400;11.092;2023-11-18T04:10:03;6.50;63.00
3548;DHT22;1788;49.400;11.092;2023-11-18T04:12:30;6.50;62.90
3548;DHT22;1788;49.400;11.092;2023-11-18T04:14:56;6.50;62.90
3548;DHT22;1788;49.400;11.092;2023-11-18T04:17:24;6.50;62.90
3548;DHT22;1788;49.400;11.092;2023-11-18T04:19:52;6.50;62.80
3548;DHT22;1788;49.400;11.092;2023-11-18T04:22:19;6.50;62.80
3548;DHT22;1788;49.400;11.092;2023-11-18T04:24:47;6.50;63.60
3548;DHT22;1788;49.400;11.092;2023-11-18T04:27:13;6.50;62.80
3548;DHT22;1788;49.400;11.092;2023-11-18T04:29:40;6.50;62.80
3548;DHT22;1788;49.400;11.092;2023-11-18T04:32:07;6.50;62.90
3548;DHT22;1788;49.400;11.092;2023-11-18T04:34:35;6.50;62.80
3548;DHT22;1788;49.400;11.092;2023-11-18T04:37:01;6.50;62.90
3548;DHT22;1788;49.400;11.092;2023-11-18T04:39:28;6.50;62.90
3548;DHT22;1788;49.400;11.092;2023-11-18T04:41:55;6.50;63.00
3548;DHT22;1788;49.400;11.092;2023-11-18T04:44:22;6.40;62.90
3548;DHT22;1788;49.400;11.092;2023-11-18T04:46:49;6.50;63.00
3548;DHT22;1788;49.400;11.092;2023-11-18T04:49:15;6.50;63.00
3548;DHT22;1788;49.400;11.092;2023-11-18T04:51:42;6.50;63.20
3548;DHT22;1788;49.400;11.092;2023-11-18T04:54:09;6.50;63.10
3548;DHT22;1788;49.400;11.092;2023-11-18T04:56:36;6.50;63.10
3548;DHT22;1788;49.400;11.092;2023-11-18T04:59:03;6.50;63.10
3548;DHT22;1788;49.400;11.092;2023-11-18T05:01:29;6.50;63.10
3548;DHT22;1788;49.400;11.092;2023-11-18T05:03:56;6.50;63.20
3548;DHT22;1788;49.400;11.092;2023-11-18T05:06:23;6.50;63.20
3548;DHT22;1788;49.400;11.092;2023-11-18T05:08:50;6.50;63.20
3548;DHT22;1788;49.400;11.092;2023-11-18T05:11:16;6.50;63.20
3548;DHT22;1788;49.400;11.092;2023-11-18T05:13:44;6.50;63.20
3548;DHT22;1788;49.400;11.092;2023-11-18T05:16:10;6.50;63.20
3548;DHT22;1788;49.400;11.092;2023-11-18T05:18:38;6.50;63.20
3548;DHT22;1788;49.400;11.092;2023-11-18T05:21:04;6.40;63.00
3548;DHT22;1788;49.400;11.092;2023-11-18T05:23:31;6.40;63.00
3548;DHT22;1788;49.400;11.092;2023-11-18T05:25:58;6.40;63.00
3548;DHT22;1788;49.400;11.092;2023-11-18T05:28:24;6.40;63.00
3548;DHT22;1788;49.400;11.092;2023-11-18T05:30:51;6.30;62.90
3548;DHT22;1788;49.400;11.092;2023-11-18T05:33:18;6.30;62.90
3548;DHT22;1788;49.400;11.092;2023-11-18T05:35:45;6.30;63.00
3548;DHT22;1788;49.400;11.092;2023-11-18T05:38:11;6.20;62.90
3548;DHT22;1788;49.400;11.092;2023-11-18T05:40:38;6.20;62.80
3548;DHT22;1788;49.400;11.092;2023-11-18T05:43:05;6.20;62.80
3548;DHT22;1788;49.400;11.092;2023-11-18T05:45:31;6.20;62.80
3548;DHT22;1788;49.400;11.092;2023-11-18T05:47:59;6.20;62.90
3548;DHT22;1788;49.400;11.092;2023-11-18T05:50:25;6.10;62.80
3548;DHT22;1788;49.400;11.092;2023-11-18T05:52:52;6.10;62.80
3548;DHT22;1788;49.400;11.092;2023-11-18T05:55:18;6.10;62.80
3548;DHT22;1788;49.400;11.092;2023-11-18T05:57:45;6.10;62.80
3548;DHT22;1788;49.400;11.092;2023-11-18T06:00:12;6.10;63.00
3548;DHT22;1788;49.400;11.092;2023-11-18T06:02:39;6.10;62.90
3548;DHT22;1788;49.400;11.092;2023-11-18T06:05:06;6.10;63.00
3548;DHT22;1788;49.400;11.092;2023-11-18T06:07:32;6.10;63.10
3548;DHT22;1788;49.400;11.092;2023-11-18T06:09:59;6.10;63.20
3548;DHT22;1788;49.400;11.092;2023-11-18T06:12:26;6.10;63.50
3548;DHT22;1788;49.400;11.092;2023-11-18T06:14:53;6.10;63.30
3548;DHT22;1788;49.400;11.092;2023-11-18T06:17:20;6.10;63.30
3548;DHT22;1788;49.400;11.092;2023-11-18T06:19:47;6.10;63.30
3548;DHT22;1788;49.400;11.092;2023-11-18T06:22:13;6.20;63.50
3548;DHT22;1788;49.400;11.092;2023-11-18T06:24:40;6.20;63.50
3548;DHT22;1788;49.400;11.092;2023-11-18T06:27:07;6.20;63.50
3548;DHT22;1788;49.400;11.092;2023-11-18T06:29:34;6.20;63.50
3548;DHT22;1788;49.400;11.092;2023-11-18T06:32:01;6.20;63.50
3548;DHT22;1788;49.400;11.092;2023-11-18T06:34:28;6.20;63.50
3548;DHT22;1788;49.400;11.092;2023-11-18T06:36:56;6.30;63.70
3548;DHT22;1788;49.400;11.092;2023-11-18T06:39:23;6.30;63.70
3548;DHT22;1788;49.400;11.092;2023-11-18T06:41:50;6.30;63.70
3548;DHT22;1788;49.400;11.092;2023-11-18T06:44:17;6.30;63.70
3548;DHT22;1788;49.400;11.092;2023-11-18T06:46:44;6.30;63.70
3548;DHT22;1788;49.400;11.092;2023-11-18T06:49:11;6.30;63.70
3548;DHT22;1788;49.400;11.092;2023-11-18T06:51:40;6.30;63.70
3548;DHT22;1788;49.400;11.092;2023-11-18T06:54:07;6.30;63.70
3548;DHT22;1788;49.400;11.092;2023-11-18T06:56:34;6.40;63.80
3548;DHT22;1788;49.400;11.092;2023-11-18T06:59:01;6.40;63.90
3548;DHT22;1788;49.400;11.092;2023-11-18T07:01:28;6.40;63.90
3548;DHT22;1788;49.400;11.092;2023-11-18T07:03:54;6.40;63.90
3548;DHT22;1788;49.400;11.092;2023-11-18T07:06:22;6.40;63.90
3548;DHT22;1788;49.400;11.092;2023-11-18T07:08:50;6.40;63.90
3548;DHT22;1788;49.400;11.092;2023-11-18T07:11:17;6.40;63.90
3548;DHT22;1788;49.400;11.092;2023-11-18T07:13:43;6.50;64.00
3548;DHT22;1788;49.400;11.092;2023-11-18T07:16:09;6.50;64.00
3548;DHT22;1788;49.400;11.092;2023-11-18T07:18:37;6.50;64.00
3548;DHT22;1788;49.400;11.092;2023-11-18T07:21:04;6.60;64.20
3548;DHT22;1788;49.400;11.092;2023-11-18T07:23:31;6.50;64.00
3548;DHT22;1788;49.400;11.092;2023-11-18T07:25:57;6.60;64.10
3548;DHT22;1788;49.400;11.092;2023-11-18T07:28:24;6.60;64.10
3548;DHT22;1788;49.400;11.092;2023-11-18T07:30:52;6.60;64.10
3548;DHT22;1788;49.400;11.092;2023-11-18T07:33:18;6.70;64.30
3548;DHT22;1788;49.400;11.092;2023-11-18T07:35:46;6.70;64.30
3548;DHT22;1788;49.400;11.092;2023-11-18T07:38:12;6.70;64.30
3548;DHT22;1788;49.400;11.092;2023-11-18T07:40:38;6.70;64.40
3548;DHT22;1788;49.400;11.092;2023-11-18T07:43:07;6.80;64.60
3548;DHT22;1788;49.400;11.092;2023-11-18T07:47:59;6.80;64.60
3548;DHT22;1788;49.400;11.092;2023-11-18T07:50:25;6.90;64.70
3548;DHT22;1788;49.400;11.092;2023-11-18T07:52:52;6.90;64.80
3548;DHT22;1788;49.400;11.092;2023-11-18T07:55:19;7.00;64.90
3548;DHT22;1788;49.400;11.092;2023-11-18T07:57:45;7.10;65.10
3548;DHT22;1788;49.400;11.092;2023-11-18T08:00:12;7.10;65.10
3548;DHT22;1788;49.400;11.092;2023-11-18T08:02:38;7.20;65.30
3548;DHT22;1788;49.400;11.092;2023-11-18T08:05:05;7.30;65.40
3548;DHT22;1788;49.400;11.092;2023-11-18T08:07:32;7.30;65.40
3548;DHT22;1788;49.400;11.092;2023-11-18T08:09:58;7.40;65.50
3548;DHT22;1788;49.400;11.092;2023-11-18T08:12:26;7.60;65.60
3548;DHT22;1788;49.400;11.092;2023-11-18T08:14:53;7.60;65.60
3548;DHT22;1788;49.400;11.092;2023-11-18T08:17:20;7.70;65.60
3548;DHT22;1788;49.400;11.092;2023-11-18T08:19:46;7.80;65.60
3548;DHT22;1788;49.400;11.092;2023-11-18T08:22:13;7.80;65.40
3548;DHT22;1788;49.400;11.092;2023-11-18T08:24:40;7.80;65.30
3548;DHT22;1788;49.400;11.092;2023-11-18T08:27:07;7.90;65.30
3548;DHT22;1788;49.400;11.092;2023-11-18T08:29:34;8.00;65.80
3548;DHT22;1788;49.400;11.092;2023-11-18T08:32:01;7.90;65.20
3548;DHT22;1788;49.400;11.092;2023-11-18T08:34:27;8.00;65.30
3548;DHT22;1788;49.400;11.092;2023-11-18T08:36:54;8.00;65.30
3548;DHT22;1788;49.400;11.092;2023-11-18T08:39:21;8.00;65.30
3548;DHT22;1788;49.400;11.092;2023-11-18T08:41:48;8.10;65.40
3548;DHT22;1788;49.400;11.092;2023-11-18T08:44:14;8.10;65.40
3548;DHT22;1788;49.400;11.092;2023-11-18T08:46:41;8.10;65.40
3548;DHT22;1788;49.400;11.092;2023-11-18T08:49:08;8.20;65.40
3548;DHT22;1788;49.400;11.092;2023-11-18T08:51:35;8.10;65.30
3548;DHT22;1788;49.400;11.092;2023-11-18T08:54:02;8.20;65.60
3548;DHT22;1788;49.400;11.092;2023-11-18T08:56:29;8.20;65.60
3548;DHT22;1788;49.400;11.092;2023-11-18T08:58:57;8.20;65.50
3548;DHT22;1788;49.400;11.092;2023-11-18T09:01:23;8.20;65.40
3548;DHT22;1788;49.400;11.092;2023-11-18T09:03:50;8.20;65.40
3548;DHT22;1788;49.400;11.092;2023-11-18T09:06:17;8.20;65.50
3548;DHT22;1788;49.400;11.092;2023-11-18T09:08:44;8.20;65.70
3548;DHT22;1788;49.400;11.092;2023-11-18T09:11:12;8.20;65.90
3548;DHT22;1788;49.400;11.092;2023-11-18T09:13:37;8.20;65.90
3548;DHT22;1788;49.400;11.092;2023-11-18T09:16:05;8.20;65.90
3548;DHT22;1788;49.400;11.092;2023-11-18T09:18:31;8.30;66.10
3548;DHT22;1788;49.400;11.092;2023-11-18T09:20:57;8.30;66.10
3548;DHT22;1788;49.400;11.092;2023-11-18T09:23:24;8.40;66.10
3548;DHT22;1788;49.400;11.092;2023-11-18T09:25:50;8.40;66.10
3548;DHT22;1788;49.400;11.092;2023-11-18T09:28:17;8.50;66.20
3548;DHT22;1788;49.400;11.092;2023-11-18T09:30:45;8.50;66.20
3548;DHT22;1788;49.400;11.092;2023-11-18T09:33:10;8.60;66.30
3548;DHT22;1788;49.400;11.092;2023-11-18T09:35:37;8.60;66.20
3548;DHT22;1788;49.400;11.092;2023-11-18T09:38:04;8.70;66.30
3548;DHT22;1788;49.400;11.092;2023-11-18T09:40:31;8.70;66.20
3548;DHT22;1788;49.400;11.092;2023-11-18T09:42:58;8.80;66.20
3548;DHT22;1788;49.400;11.092;2023-11-18T09:45:24;8.80;66.10
3548;DHT22;1788;49.400;11.092;2023-11-18T09:47:51;8.80;66.00
3548;DHT22;1788;49.400;11.092;2023-11-18T09:50:18;8.90;66.10
3548;DHT22;1788;49.400;11.092;2023-11-18T09:52:47;8.90;66.10
3548;DHT22;1788;49.400;11.092;2023-11-18T09:55:14;9.00;67.20
3548;DHT22;1788;49.400;11.092;2023-11-18T09:57:40;8.90;66.20
3548;DHT22;1788;49.400;11.092;2023-11-18T10:00:06;9.10;66.50
3548;DHT22;1788;49.400;11.092;2023-11-18T10:02:32;9.10;66.40
3548;DHT22;1788;49.400;11.092;2023-11-18T10:04:59;9.20;66.40
3548;DHT22;1788;49.400;11.092;2023-11-18T10:07:27;9.40;66.80
3548;DHT22;1788;49.400;11.092;2023-11-18T10:09:54;9.80;68.00
3548;DHT22;1788;49.400;11.092;2023-11-18T10:12:20;10.10;66.70
3548;DHT22;1788;49.400;11.092;2023-11-18T10:14:48;10.40;65.60
3548;DHT22;1788;49.400;11.092;2023-11-18T10:17:14;10.40;65.60
3548;DHT22;1788;49.400;11.092;2023-11-18T10:22:20;10.50;64.90
3548;DHT22;1788;49.400;11.092;2023-11-18T10:27:03;10.60;64.60
3548;DHT22;1788;49.400;11.092;2023-11-18T10:29:30;10.50;64.30
3548;DHT22;1788;49.400;11.092;2023-11-18T10:32:03;10.50;64.30
3548;DHT22;1788;49.400;11.092;2023-11-18T10:34:24;10.50;64.20
3548;DHT22;1788;49.400;11.092;2023-11-18T10:39:18;10.50;64.10
3548;DHT22;1788;49.400;11.092;2023-11-18T10:41:45;10.40;63.70
3548;DHT22;1788;49.400;11.092;2023-11-18T10:44:12;10.40;63.70
3548;DHT22;1788;49.400;11.092;2023-11-18T10:46:41;10.30;63.70
3548;DHT22;1788;49.400;11.092;2023-11-18T10:49:06;10.30;63.70
3548;DHT22;1788;49.400;11.092;2023-11-18T10:51:33;10.30;63.80
3548;DHT22;1788;49.400;11.092;2023-11-18T10:54:00;10.20;63.90
3548;DHT22;1788;49.400;11.092;2023-11-18T10:56:27;10.20;63.90
3548;DHT22;1788;49.400;11.092;2023-11-18T11:06:15;10.50;64.10
3548;DHT22;1788;49.400;11.092;2023-11-18T11:08:42;10.60;64.00
3548;DHT22;1788;49.400;11.092;2023-11-18T11:11:08;10.80;64.00
3548;DHT22;1788;49.400;11.092;2023-11-18T11:13:35;10.90;63.90
3548;DHT22;1788;49.400;11.092;2023-11-18T11:16:02;11.20;64.40
3548;DHT22;1788;49.400;11.092;2023-11-18T11:18:29;11.20;63.60
3548;DHT22;1788;49.400;11.092;2023-11-18T11:30:45;12.70;62.10
3548;DHT22;1788;49.400;11.092;2023-11-18T11:35:40;12.70;60.90
3548;DHT22;1788;49.400;11.092;2023-11-18T11:38:05;12.70;60.90
3548;DHT22;1788;49.400;11.092;2023-11-18T11:40:33;12.60;60.40
3548;DHT22;1788;49.400;11.092;2023-11-18T11:42:59;12.60;60.30
3548;DHT22;1788;49.400;11.092;2023-11-18T11:45:27;12.50;60.10
3548;DHT22;1788;49.400;11.092;2023-11-18T11:47:54;12.40;60.10
3548;DHT22;1788;49.400;11.092;2023-11-18T11:50:22;12.30;60.00
3548;DHT22;1788;49.400;11.092;2023-11-18T11:55:18;12.10;60.70
3548;DHT22;1788;49.400;11.092;2023-11-18T11:57:41;11.90;59.90
3548;DHT22;1788;49.400;11.092;2023-11-18T12:00:09;11.90;59.90
3548;DHT22;1788;49.400;11.092;2023-11-18T12:02:35;11.80;59.90
3548;DHT22;1788;49.400;11.092;2023-11-18T12:05:01;11.80;59.90
3548;DHT22;1788;49.400;11.092;2023-11-18T12:07:28;11.80;59.80
3548;DHT22;1788;49.400;11.092;2023-11-18T12:12:22;11.80;59.40
3548;DHT22;1788;49.400;11.092;2023-11-18T12:14:49;11.80;59.70
3548;DHT22;1788;49.400;11.092;2023-11-18T12:17:16;11.80;59.60
3548;DHT22;1788;49.400;11.092;2023-11-18T12:19:44;11.80;59.60
3548;DHT22;1788;49.400;11.092;2023-11-18T12:22:11;11.80;59.40
3548;DHT22;1788;49.400;11.092;2023-11-18T12:24:38;11.80;59.40
3548;DHT22;1788;49.400;11.092;2023-11-18T12:27:05;11.80;59.40
3548;DHT22;1788;49.400;11.092;2023-11-18T12:29:33;11.70;59.30
3548;DHT22;1788;49.400;11.092;2023-11-18T12:31:59;11.70;59.20
3548;DHT22;1788;49.400;11.092;2023-11-18T12:34:49;11.70;59.10
3548;DHT22;1788;49.400;11.092;2023-11-18T12:36:56;11.80;59.20
3548;DHT22;1788;49.400;11.092;2023-11-18T12:46:47;11.70;58.80
3548;DHT22;1788;49.400;11.092;2023-11-18T12:49:08;11.60;58.80
3548;DHT22;1788;49.400;11.092;2023-11-18T12:51:35;11.60;58.70
3548;DHT22;1788;49.400;11.092;2023-11-18T12:54:02;11.50;58.60
3548;DHT22;1788;49.400;11.092;2023-11-18T12:56:28;11.50;58.60
3548;DHT22;1788;49.400;11.092;2023-11-18T12:58:56;11.40;58.40
3548;DHT22;1788;49.400;11.092;2023-11-18T13:01:24;11.40;58.40
3548;DHT22;1788;49.400;11.092;2023-11-18T13:03:51;11.40;58.40
3548;DHT22;1788;49.400;11.092;2023-11-18T13:06:18;11.30;58.20
3548;DHT22;1788;49.400;11.092;2023-11-18T13:08:46;11.30;58.20
3548;DHT22;1788;49.400;11.092;2023-11-18T13:11:12;11.30;58.20
3548;DHT22;1788;49.400;11.092;2023-11-18T13:13:39;11.30;58.10
3548;DHT22;1788;49.400;11.092;2023-11-18T13:16:06;11.30;58.10
3548;DHT22;1788;49.400;11.092;2023-11-18T13:21:00;11.20;58.00
3548;DHT22;1788;49.400;11.092;2023-11-18T13:23:27;11.20;58.00
3548;DHT22;1788;49.400;11.092;2023-11-18T13:25:55;11.20;58.00
3548;DHT22;1788;49.400;11.092;2023-11-18T13:28:22;11.20;58.00
3548;DHT22;1788;49.400;11.092;2023-11-18T13:30:48;11.10;57.90
3548;DHT22;1788;49.400;11.092;2023-11-18T13:33:14;11.10;57.90
3548;DHT22;1788;49.400;11.092;2023-11-18T13:35:41;11.00;57.90
3548;DHT22;1788;49.400;11.092;2023-11-18T13:38:08;11.00;57.90
3548;DHT22;1788;49.400;11.092;2023-11-18T13:43:02;10.90;58.00
3548;DHT22;1788;49.400;11.092;2023-11-18T13:45:28;10.90;58.10
3548;DHT22;1788;49.400;11.092;2023-11-18T13:47:56;10.80;58.00
3548;DHT22;1788;49.400;11.092;2023-11-18T13:50:23;10.80;58.00
3548;DHT22;1788;49.400;11.092;2023-11-18T13:52:50;10.80;58.10
3548;DHT22;1788;49.400;11.092;2023-11-18T13:55:19;10.70;58.10
3548;DHT22;1788;49.400;11.092;2023-11-18T13:57:47;10.70;58.20
3548;DHT22;1788;49.400;11.092;2023-11-18T14:00:14;10.60;58.20
3548;DHT22;1788;49.400;11.092;2023-11-18T14:02:42;10.70;58.40
3548;DHT22;1788;49.400;11.092;2023-11-18T14:07:37;10.70;59.10
3548;DHT22;1788;49.400;11.092;2023-11-18T14:10:04;10.70;58.50
3548;DHT22;1788;49.400;11.092;2023-11-18T14:12:30;10.70;58.40
3548;DHT22;1788;49.400;11.092;2023-11-18T14:14:57;10.70;58.50
3548;DHT22;1788;49.400;11.092;2023-11-18T14:17:24;10.70;58.50
3548;DHT22;1788;49.400;11.092;2023-11-18T14:19:50;10.70;58.60
3548;DHT22;1788;49.400;11.092;2023-11-18T14:22:19;10.70;58.60
3548;DHT22;1788;49.400;11.092;2023-11-18T14:24:46;10.70;58.60
3548;DHT22;1788;49.400;11.092;2023-11-18T14:27:13;10.70;58.70
3548;DHT22;1788;49.400;11.092;2023-11-18T14:29:39;10.70;58.70
3548;DHT22;1788;49.400;11.092;2023-11-18T14:32:07;10.70;58.70
3548;DHT22;1788;49.400;11.092;2023-11-18T14:34:33;10.70;58.70
3548;DHT22;1788;49.400;11.092;2023-11-18T14:37:01;10.70;58.80
3548;DHT22;1788;49.400;11.092;2023-11-18T14:39:27;10.70;58.80
3548;DHT22;1788;49.400;11.092;2023-11-18T14:41:55;10.70;58.80
3548;DHT22;1788;49.400;11.092;2023-11-18T14:44:21;10.70;58.80
3548;DHT22;1788;49.400;11.092;2023-11-18T14:46:48;10.70;58.80
3548;DHT22;1788;49.400;11.092;2023-11-18T14:49:14;10.60;58.80
3548;DHT22;1788;49.400;11.092;2023-11-18T14:51:41;10.60;58.80
3548;DHT22;1788;49.400;11.092;2023-11-18T14:54:09;10.60;59.00
3548;DHT22;1788;49.400;11.092;2023-11-18T14:56:35;10.50;58.90
3548;DHT22;1788;49.400;11.092;2023-11-18T14:59:03;10.50;59.10
3548;DHT22;1788;49.400;11.092;2023-11-18T15:01:29;10.50;59.00
3548;DHT22;1788;49.400;11.092;2023-11-18T15:03:57;10.50;59.10
3548;DHT22;1788;49.400;11.092;2023-11-18T15:06:24;10.50;59.10
3548;DHT22;1788;49.400;11.092;2023-11-18T15:08:51;10.40;59.10
3548;DHT22;1788;49.400;11.092;2023-11-18T15:13:44;10.40;59.20
3548;DHT22;1788;49.400;11.092;2023-11-18T15:16:11;10.30;59.10
3548;DHT22;1788;49.400;11.092;2023-11-18T15:18:38;10.30;59.20
3548;DHT22;1788;49.400;11.092;2023-11-18T15:21:04;10.30;59.30
3548;DHT22;1788;49.400;11.092;2023-11-18T15:23:32;10.10;59.30
3548;DHT22;1788;49.400;11.092;2023-11-18T15:25:59;10.10;59.30
3548;DHT22;1788;49.400;11.092;2023-11-18T15:28:26;10.10;59.50
3548;DHT22;1788;49.400;11.092;2023-11-18T15:30:53;10.10;59.50
3548;DHT22;1788;49.400;11.092;2023-11-18T15:33:20;10.10;59.60
3548;DHT22;1788;49.400;11.092;2023-11-18T15:35:47;10.10;59.60
3548;DHT22;1788;49.400;11.092;2023-11-18T15:38:13;10.00;59.60
3548;DHT22;1788;49.400;11.092;2023-11-18T15:40:40;10.00;59.70
3548;DHT22;1788;49.400;11.092;2023-11-18T15:43:06;10.00;59.70
3548;DHT22;1788;49.400;11.092;2023-11-18T15:45:33;10.00;59.80
3548;DHT22;1788;49.400;11.092;2023-11-18T15:48:00;10.00;59.90
3548;DHT22;1788;49.400;11.092;2023-11-18T15:50:27;10.00;59.90
3548;DHT22;1788;49.400;11.092;2023-11-18T15:52:53;10.00;59.90
3548;DHT22;1788;49.400;11.092;2023-11-18T15:55:20;9.90;61.10
3548;DHT22;1788;49.400;11.092;2023-11-18T15:57:48;9.90;62.00
3548;DHT22;1788;49.400;11.092;2023-11-18T16:00:14;9.90;61.20
3548;DHT22;1788;49.400;11.092;2023-11-18T16:02:41;9.90;61.20
3548;DHT22;1788;49.400;11.092;2023-11-18T16:05:07;9.90;61.30
3548;DHT22;1788;49.400;11.092;2023-11-18T16:07:34;9.90;61.40
3548;DHT22;1788;49.400;11.092;2023-11-18T16:10:01;9.80;61.60
3548;DHT22;1788;49.400;11.092;2023-11-18T16:12:29;9.80;61.50
3548;DHT22;1788;49.400;11.092;2023-11-18T16:14:57;9.80;61.70
3548;DHT22;1788;49.400;11.092;2023-11-18T16:17:23;9.70;62.30
3548;DHT22;1788;49.400;11.092;2023-11-18T16:19:50;9.70;61.60
3548;DHT22;1788;49.400;11.092;2023-11-18T16:22:16;9.80;61.80
3548;DHT22;1788;49.400;11.092;2023-11-18T16:24:43;9.80;61.80
3548;DHT22;1788;49.400;11.092;2023-11-18T16:27:10;9.80;61.90
3548;DHT22;1788;49.400;11.092;2023-11-18T16:29:36;9.80;61.90
3548;DHT22;1788;49.400;11.092;2023-11-18T16:32:03;9.80;61.90
3548;DHT22;1788;49.400;11.092;2023-11-18T16:34:29;9.80;62.00
3548;DHT22;1788;49.400;11.092;2023-11-18T16:36:56;9.80;62.00
3548;DHT22;1788;49.400;11.092;2023-11-18T16:39:23;9.80;62.00
3548;DHT22;1788;49.400;11.092;2023-11-18T16:41:49;9.80;62.10
3548;DHT22;1788;49.400;11.092;2023-11-18T16:44:16;9.80;62.10
3548;DHT22;1788;49.400;11.092;2023-11-18T16:46:43;9.80;62.20
3548;DHT22;1788;49.400;11.092;2023-11-18T16:49:11;9.80;62.20
3548;DHT22;1788;49.400;11.092;2023-11-18T16:51:38;9.80;62.20
3548;DHT22;1788;49.400;11.092;2023-11-18T16:54:04;9.80;62.20